White Oak, GA (31568)

4:37 AM EST on November 14, 2019 (GMT -0500)
White Oak | | Change Station
Active Advisory: Coastal Flood Advisory Active Notice: Coastal Flood Advisory

Elev 16 ft 31.03 °N, 81.73 °W | Updated 5 seconds ago

Overcast
Overcast
42.6 °F
Feels Like 43 °F
N
0.7
Wind Variable Wind from West
Gusts 1.1 mph

Today
High -- | Low -- °F
--% Chance of Precip.
Yesterday
High -- | Low -- °F
Precip. -- in
Pressure 30.22 in
Visibility 10.0 miles
Clouds Overcast 1400 ft
Windchill 43 °F
Dew Point 38 °F
Humidity 83%
Rainfall 0.00 in
Snow Depth Not available.
6:52 AM 5:29 PM
Waning Gibbous, 97% visible
METAR KSSI 140753Z AUTO 02011KT 10SM OVC014 09/04 A3021 RMK AO2 SLP231 T00940044
Pressure 30.22 in
Visibility 10.0 miles
Clouds Overcast 1400 ft
Windchill 43 °F
Dew Point 38 °F
Humidity 83%
Rainfall 0.00 in
Snow Depth Not available.
6:52 AM 5:29 PM
Waning Gibbous, 97% visible
METAR KSSI 140753Z AUTO 02011KT 10SM OVC014 09/04 A3021 RMK AO2 SLP231 T00940044

Get Your Daily Forecast Email!

Thanks for signing up!

Be on the lookout for a verification email in your inbox.

You'll start receiving severe weather alerts in your inbox..

×

10-Day Weather Forecast

Almanac

Astronomy

Nov. 14, 2019 Rise Set
Actual Time
Civil Twilight
Nautical Twilight
Astronomical Twilight
Moon
Length of Visible Light
Length of Day
Tomorrow will be .
, % of the Moon is Illuminated

Today's Extremes

State Highs State Lows

Community

WunderPhotos

Category 6

Welcome to Category 6. This is the collective home for Weather Underground's featured writeups by Dr. Jeff Masters (right), Bob Henson (left), Chris Burt, and other regular contributors.

Nearby

Air Quality

  Air Quality AQ Index Pollutant
Not available.

Snow Depth

Station Depth Elevation

Earthquake Activity

City Distance Mag. Time & Date
Minimum magnitude displayed is 2.5.

Coastal Water Temperatures

Place Temperature

Stations

Nearby Weather Stations

Station Location Temp. Windchill Dew Point Humidity Wind Precip. Elev Updated Type
                   

Watches & Warnings

Coastal Flood Advisory
Issued: 4:07 AM EST Nov. 14, 2019 – National Weather Service

... Coastal flood advisory remains in effect until 5 PM EST this
afternoon...

* locations... St Johns River basin and inlets in southeast
Georgia.

* Tidal departure... tides 1 to 2 feet above predicted levels.

* Coastal flood impacts... minor tidal flooding is possible
during the high tide cycle.

Precautionary/preparedness actions...

A coastal flood advisory indicates that onshore winds and tides
will combine to generate flooding of low areas along the shore.